Time;durP1;ratioP1;P1;durP2;ratioP2;P2;SDS_P1;SDS_P2;PMS_P1;PMS_P2;Temp;Humidity;BMP_temperature;BMP_pressure;BME280_temperature;BME280_humidity;BME280_pressure;Samples;Min_cycle;Max_cycle;Signal;HPM_P1;HPM_P2
2021/10/30 00:02:15;;;;;;;;;28.75;26.25;;;;;15.50;61.58;98637.44;4793489;28;103533;-69
2021/10/30 00:04:42;;;;;;;;;30.25;29.00;;;;;15.48;61.79;98647.75;4784350;29;104284;-69
2021/10/30 00:07:10;;;;;;;;;29.75;28.50;;;;;15.48;61.66;98642.31;4751647;28;102759;-69
2021/10/30 00:09:38;;;;;;;;;32.75;30.50;;;;;15.47;61.59;98644.22;4796912;29;102636;-69
2021/10/30 00:12:05;;;;;;;;;36.50;28.25;;;;;15.46;61.58;98647.16;4814883;28;102197;-69
2021/10/30 00:14:32;;;;;;;;;30.50;29.00;;;;;15.46;61.51;98637.09;4797618;29;108973;-69
2021/10/30 00:16:59;;;;;;;;;29.50;25.25;;;;;15.44;61.83;98631.06;4801987;28;102536;-69
2021/10/30 00:19:27;;;;;;;;;30.25;27.00;;;;;15.44;61.91;98628.31;4799421;29;102495;-69
2021/10/30 00:21:54;;;;;;;;;26.75;23.00;;;;;15.44;61.72;98627.50;4796112;29;102642;-69
2021/10/30 00:24:26;;;;;;;;;33.25;28.25;;;;;15.43;61.86;98631.28;4802901;29;104365;-69
2021/10/30 00:26:53;;;;;;;;;27.00;26.25;;;;;15.42;62.01;98630.44;4794585;28;102153;-69
2021/10/30 00:29:20;;;;;;;;;33.50;28.25;;;;;15.44;61.57;98627.50;4801074;29;110866;-69
2021/10/30 00:31:47;;;;;;;;;29.75;27.00;;;;;15.45;61.62;98645.47;4797570;28;102533;-69
2021/10/30 00:34:14;;;;;;;;;30.25;27.50;;;;;15.42;61.85;98635.06;4822127;28;105885;-69
2021/10/30 00:36:41;;;;;;;;;29.00;25.75;;;;;15.44;61.68;98644.69;4791651;28;102563;-69
2021/10/30 00:39:08;;;;;;;;;31.00;28.00;;;;;15.44;61.57;98632.94;4803529;28;102225;-69
2021/10/30 00:41:36;;;;;;;;;32.50;27.75;;;;;15.44;61.38;98643.84;4799422;28;104876;-69
2021/10/30 00:44:10;;;;;;;;;37.75;29.75;;;;;15.44;61.55;98654.75;4793251;29;108833;-69
2021/10/30 00:46:44;;;;;;;;;31.75;28.25;;;;;15.42;61.59;98641.34;4795247;28;102286;-69
2021/10/30 00:49:11;;;;;;;;;26.25;24.75;;;;;15.41;61.16;98633.38;4808094;28;103661;-69
2021/10/30 00:51:39;;;;;;;;;25.50;20.00;;;;;15.41;61.52;98636.94;4795084;29;103555;-69
2021/10/30 00:54:07;;;;;;;;;30.00;25.50;;;;;15.39;61.33;98630.91;4790399;28;104509;-69
2021/10/30 00:56:35;;;;;;;;;35.00;30.00;;;;;15.39;61.67;98636.38;4804546;29;102410;-69
2021/10/30 00:59:04;;;;;;;;;34.25;26.50;;;;;15.37;61.49;98626.75;4779617;29;102887;-69
2021/10/30 01:01:31;;;;;;;;;32.50;28.75;;;;;15.37;61.49;98626.75;4783965;28;102658;-69
2021/10/30 01:03:59;;;;;;;;;31.75;28.00;;;;;15.36;61.51;98619.63;4768728;29;103856;-69
2021/10/30 01:06:26;;;;;;;;;32.25;26.75;;;;;15.35;61.72;98616.09;4786840;29;102165;-69
2021/10/30 01:08:53;;;;;;;;;33.50;27.00;;;;;15.35;61.87;98623.44;4768063;29;104157;-69
2021/10/30 01:11:20;;;;;;;;;41.75;30.75;;;;;15.36;61.36;98619.63;4803326;29;102406;-69
2021/10/30 01:13:47;;;;;;;;;28.00;27.00;;;;;15.35;61.30;98607.91;4786952;29;104503;-69
2021/10/30 01:16:16;;;;;;;;;35.25;30.00;;;;;15.36;61.66;98604.09;4781315;28;102170;-69
2021/10/30 01:18:43;;;;;;;;;31.25;27.25;;;;;15.36;61.66;98609.56;4770281;29;104947;-69
2021/10/30 01:21:10;;;;;;;;;33.50;30.25;;;;;15.36;61.81;98603.28;4793710;29;102348;-69
2021/10/30 01:23:37;;;;;;;;;30.75;28.50;;;;;15.35;61.52;98601.63;4789176;29;105205;-69
2021/10/30 01:26:05;;;;;;;;;34.50;28.75;;;;;15.34;61.43;98594.53;4797763;29;102517;-69
2021/10/30 01:28:35;;;;;;;;;35.25;29.50;;;;;15.33;61.55;98587.41;4787872;28;103305;-69
2021/10/30 01:31:02;;;;;;;;;30.25;26.50;;;;;15.30;61.60;98588.72;4788400;29;102490;-69
2021/10/30 01:33:29;;;;;;;;;28.75;21.00;;;;;15.28;61.90;98579.91;4835484;28;104238;-69
2021/10/30 01:35:57;;;;;;;;;33.75;30.25;;;;;15.30;61.90;98576.97;4796833;28;102410;-69
2021/10/30 01:38:24;;;;;;;;;35.25;30.00;;;;;15.28;61.53;98576.38;4794530;28;104676;-69
2021/10/30 01:40:51;;;;;;;;;26.25;25.50;;;;;15.28;61.74;98568.19;4830559;28;102376;-69
2021/10/30 01:43:19;;;;;;;;;31.00;28.50;;;;;15.27;61.62;98577.41;4799909;29;104058;-69
2021/10/30 01:45:46;;;;;;;;;31.00;27.50;;;;;15.27;61.26;98571.97;4784142;29;103381;-69
2021/10/30 01:48:13;;;;;;;;;27.75;27.00;;;;;15.26;61.82;98576.63;4781764;28;102322;-69
2021/10/30 01:50:45;;;;;;;;;26.75;17.75;;;;;15.27;61.30;98580.16;4802814;28;102863;-69
2021/10/30 01:53:13;;;;;;;;;36.50;29.50;;;;;15.29;61.85;98575.31;4796958;28;104126;-69
2021/10/30 01:55:40;;;;;;;;;32.00;29.00;;;;;15.27;61.33;98566.53;4803376;28;102675;-69
2021/10/30 01:58:07;;;;;;;;;42.50;32.75;;;;;15.27;61.49;98571.97;4808759;29;102470;-69
2021/10/30 02:00:35;;;;;;;;;32.00;27.00;;;;;15.27;61.32;98567.34;4804529;28;102665;-69
2021/10/30 02:03:02;;;;;;;;;37.00;28.25;;;;;15.29;61.21;98569.84;4806354;28;104106;-69
2021/10/30 02:05:29;;;;;;;;;30.25;24.50;;;;;15.27;61.33;98574.69;4807380;29;103225;-69
2021/10/30 02:07:56;;;;;;;;;30.75;26.75;;;;;15.26;61.26;98573.06;4802558;29;102782;-69
2021/10/30 02:10:23;;;;;;;;;31.00;28.50;;;;;15.23;61.37;98581.66;4806429;29;103390;-69
2021/10/30 02:12:50;;;;;;;;;35.00;28.75;;;;;15.23;61.57;98571.59;4809547;28;102870;-69
2021/10/30 02:15:17;;;;;;;;;29.50;26.50;;;;;15.22;61.26;98578.09;4805931;28;102440;-69
2021/10/30 02:17:44;;;;;;;;;37.50;30.25;;;;;15.21;61.47;98578.38;4806267;28;102964;-69
2021/10/30 02:20:11;;;;;;;;;32.25;30.25;;;;;15.18;61.21;98572.31;4809403;29;102310;-69
2021/10/30 02:22:39;;;;;;;;;30.25;29.25;;;;;15.19;61.11;98570.41;4804978;29;104057;-69
2021/10/30 02:25:07;;;;;;;;;31.50;30.00;;;;;15.20;61.03;98577.53;4797876;29;102220;-69
2021/10/30 02:27:34;;;;;;;;;30.75;26.00;;;;;15.18;61.56;98575.03;4807316;29;102647;-69
2021/10/30 02:30:02;;;;;;;;;29.00;25.25;;;;;15.15;61.99;98567.31;4800763;28;102508;-69
2021/10/30 02:32:29;;;;;;;;;31.50;30.25;;;;;15.15;61.68;98570.06;4799668;29;104312;-69
2021/10/30 02:34:56;;;;;;;;;30.50;27.50;;;;;15.16;61.23;98560.81;4820907;28;102153;-69
2021/10/30 02:37:23;;;;;;;;;31.00;29.00;;;;;15.17;61.35;98559.75;4794828;29;102970;-69
2021/10/30 02:39:50;;;;;;;;;26.75;23.50;;;;;15.17;61.25;98553.50;4797576;28;104092;-69
2021/10/30 02:42:17;;;;;;;;;32.00;27.50;;;;;15.17;61.25;98564.38;4808628;28;104086;-69
2021/10/30 02:44:44;;;;;;;;;35.25;32.25;;;;;15.17;61.22;98556.22;4783272;29;102665;-69
2021/10/30 02:47:11;;;;;;;;;31.75;28.00;;;;;15.17;61.21;98558.94;4795536;29;102445;-69
2021/10/30 02:49:38;;;;;;;;;30.75;29.50;;;;;15.13;61.17;98555.81;4815948;29;102804;-69
2021/10/30 02:52:06;;;;;;;;;33.50;30.00;;;;;15.13;61.53;98553.09;4789064;28;106861;-69
2021/10/30 02:54:33;;;;;;;;;30.00;27.00;;;;;15.13;61.50;98554.97;4792548;28;102651;-69
2021/10/30 02:57:00;;;;;;;;;38.00;32.00;;;;;15.10;61.24;98548.13;4793003;29;102263;-69
2021/10/30 02:59:27;;;;;;;;;32.25;29.00;;;;;15.09;61.58;98562.78;4804020;29;104202;-69
2021/10/30 03:01:54;;;;;;;;;32.25;26.00;;;;;15.10;61.20;98555.47;4773938;29;104194;-69
2021/10/30 03:04:21;;;;;;;;;28.50;25.75;;;;;15.08;61.30;98563.84;4799768;28;104131;-69
2021/10/30 03:06:48;;;;;;;;;29.50;26.25;;;;;15.09;61.17;98559.22;4824901;28;102525;-69
2021/10/30 03:09:15;;;;;;;;;29.25;27.75;;;;;15.08;61.50;98558.41;4792169;29;102725;-69
2021/10/30 03:11:42;;;;;;;;;28.75;27.75;;;;;15.07;61.23;98567.66;4794358;28;104258;-69
2021/10/30 03:14:09;;;;;;;;;32.00;28.00;;;;;15.07;61.30;98564.94;4817268;28;103028;-69
2021/10/30 03:16:37;;;;;;;;;33.00;29.50;;;;;15.07;61.20;98555.94;4798260;29;113825;-69
2021/10/30 03:19:04;;;;;;;;;32.75;24.75;;;;;15.09;61.43;98559.22;4803677;28;102589;-69
2021/10/30 03:21:31;;;;;;;;;33.00;28.50;;;;;15.08;61.09;98552.94;4806914;29;104129;-69
2021/10/30 03:23:58;;;;;;;;;36.25;30.00;;;;;15.08;61.40;98557.59;4804170;29;102649;-69
2021/10/30 03:26:25;;;;;;;;;29.75;27.75;;;;;15.08;60.87;98557.59;4798575;29;102326;-69
2021/10/30 03:28:52;;;;;;;;;28.00;27.00;;;;;15.06;61.46;98560.53;4806903;28;102595;-69
2021/10/30 03:31:19;;;;;;;;;32.00;28.75;;;;;15.07;61.12;98569.53;4802444;29;104312;-69
2021/10/30 03:33:48;;;;;;;;;32.75;28.75;;;;;15.05;61.67;98561.59;4812101;28;102184;-69
2021/10/30 03:36:15;;;;;;;;;29.75;27.75;;;;;15.04;61.23;98557.19;4808845;29;103075;-69
2021/10/30 03:38:42;;;;;;;;;28.00;26.75;;;;;15.03;61.22;98569.19;4808425;28;102338;-69
2021/10/30 03:41:09;;;;;;;;;35.00;30.00;;;;;15.03;61.24;98561.00;4800806;28;104136;-69
2021/10/30 03:43:36;;;;;;;;;31.25;29.25;;;;;15.00;61.12;98561.44;4818357;28;102401;-69
2021/10/30 03:46:03;;;;;;;;;37.00;28.50;;;;;14.99;61.27;98551.66;4816636;28;102238;-69
2021/10/30 03:48:31;;;;;;;;;32.25;28.00;;;;;14.99;61.44;98567.97;4826180;28;102809;-69
2021/10/30 03:50:58;;;;;;;;;31.25;24.00;;;;;14.97;61.30;98561.94;4820581;28;103567;-69
2021/10/30 03:53:28;;;;;;;;;31.75;30.00;;;;;14.97;61.32;98564.66;4806322;29;102242;-69
2021/10/30 03:55:55;;;;;;;;;26.00;24.00;;;;;14.97;61.33;98559.19;4818811;28;102518;-69
2021/10/30 03:58:22;;;;;;;;;37.00;29.25;;;;;14.99;61.45;98558.97;4808155;29;102569;-69
2021/10/30 04:00:53;;;;;;;;;30.25;26.50;;;;;15.00;60.81;98555.16;4802160;29;104828;-69
2021/10/30 04:03:20;;;;;;;;;27.75;25.75;;;;;14.99;61.06;98554.38;4799996;28;102577;-69
2021/10/30 04:05:47;;;;;;;;;33.00;28.50;;;;;14.98;61.54;98544.53;4818750;28;103215;-69
2021/10/30 04:08:18;;;;;;;;;30.50;24.75;;;;;14.98;61.09;98544.53;4803396;28;103130;-68
2021/10/30 04:10:46;;;;;;;;;27.75;24.75;;;;;14.99;61.15;98546.19;4805116;29;102864;-69
2021/10/30 04:13:13;;;;;;;;;29.75;27.25;;;;;14.98;61.15;98544.53;4810616;29;102782;-69
2021/10/30 04:15:40;;;;;;;;;37.50;30.00;;;;;14.97;61.00;98542.03;4802324;29;102596;-69
2021/10/30 04:18:08;;;;;;;;;29.75;28.75;;;;;14.95;61.31;98544.97;4827720;28;102237;-69
2021/10/30 04:20:35;;;;;;;;;36.75;28.50;;;;;14.95;61.15;98542.25;4803988;29;104082;-69
2021/10/30 04:23:02;;;;;;;;;26.75;23.25;;;;;14.92;60.83;98537.28;4832515;28;102651;-69
2021/10/30 04:25:28;;;;;;;;;32.25;27.00;;;;;14.91;60.83;98534.78;4800355;29;102511;-69
2021/10/30 04:27:55;;;;;;;;;31.75;26.50;;;;;14.91;61.10;98541.06;4787726;29;102389;-69
2021/10/30 04:30:22;;;;;;;;;24.75;17.75;;;;;14.90;60.93;98538.59;4809232;28;104073;-69
2021/10/30 04:32:50;;;;;;;;;34.00;29.00;;;;;14.90;61.19;98536.69;4815723;28;103485;-69
2021/10/30 04:35:17;;;;;;;;;30.25;26.25;;;;;14.89;61.02;98536.91;4792938;29;104964;-69
2021/10/30 04:37:44;;;;;;;;;28.50;26.00;;;;;14.87;60.85;98528.97;4818702;28;102406;-69
2021/10/30 04:40:15;;;;;;;;;31.75;29.50;;;;;14.89;61.07;98520.56;4787587;28;103970;-69
2021/10/30 04:42:42;;;;;;;;;29.25;26.50;;;;;14.89;61.29;98524.13;4812257;29;104697;-69
2021/10/30 04:45:09;;;;;;;;;30.75;25.75;;;;;14.89;60.88;98521.41;4799742;29;103967;-69
2021/10/30 04:47:36;;;;;;;;;28.25;24.75;;;;;14.90;60.76;98517.63;4810269;29;102448;-69
2021/10/30 04:50:03;;;;;;;;;34.75;30.75;;;;;14.89;60.79;98510.53;4822125;28;104115;-69
2021/10/30 04:52:31;;;;;;;;;26.50;24.00;;;;;14.89;60.98;98510.53;4818601;28;102241;-69
2021/10/30 04:54:58;;;;;;;;;27.25;24.75;;;;;14.88;60.91;98508.84;4793223;29;103896;-69
2021/10/30 04:57:25;;;;;;;;;34.50;27.25;;;;;14.87;61.19;98518.06;4793359;28;102352;-69
2021/10/30 04:59:52;;;;;;;;;26.50;24.25;;;;;14.85;60.95;98512.03;4813647;28;104309;-69
2021/10/30 05:02:19;;;;;;;;;34.25;27.75;;;;;14.85;61.08;98505.78;4803993;28;102211;-69
2021/10/30 05:04:46;;;;;;;;;26.50;25.50;;;;;14.83;60.65;98516.88;4813844;28;102612;-69
2021/10/30 05:07:13;;;;;;;;;28.50;25.75;;;;;14.82;60.91;98503.47;4822871;28;103632;-69
2021/10/30 05:09:40;;;;;;;;;28.50;26.00;;;;;14.82;60.77;98507.03;4823164;28;105665;-69
2021/10/30 05:12:08;;;;;;;;;23.50;19.50;;;;;14.81;60.68;98510.84;4778807;28;103199;-69
2021/10/30 05:14:35;;;;;;;;;30.50;27.50;;;;;14.81;60.85;98504.56;4803664;29;102081;-69
2021/10/30 05:17:02;;;;;;;;;32.00;26.00;;;;;14.80;60.80;98511.06;4805077;28;103370;-69
2021/10/30 05:19:29;;;;;;;;;29.25;26.75;;;;;14.78;61.25;98508.56;4783319;28;104206;-69
2021/10/30 05:21:56;;;;;;;;;28.25;24.75;;;;;14.78;60.94;98505.84;4820282;28;102655;-69
2021/10/30 05:24:23;;;;;;;;;32.00;28.00;;;;;14.79;61.20;98502.06;4804297;29;104220;-69
2021/10/30 05:26:50;;;;;;;;;24.00;24.00;;;;;14.80;61.04;98494.75;4806129;28;102453;-69
2021/10/30 05:29:17;;;;;;;;;25.50;23.00;;;;;14.80;60.88;98511.06;4808035;29;104040;-69
2021/10/30 05:31:44;;;;;;;;;29.00;24.50;;;;;14.81;60.79;98491.78;4800957;28;106657;-69
2021/10/30 05:34:11;;;;;;;;;25.75;23.50;;;;;14.81;60.84;98501.84;4805305;29;102627;-69
2021/10/30 05:36:39;;;;;;;;;29.25;27.50;;;;;14.80;60.84;98506.47;4791839;29;103495;-68
2021/10/30 05:39:11;;;;;;;;;29.00;26.50;;;;;14.80;60.61;98501.00;4788413;29;104852;-69
2021/10/30 05:41:38;;;;;;;;;27.50;24.75;;;;;14.78;60.47;98505.00;4814574;28;102293;-68
2021/10/30 05:44:05;;;;;;;;;32.25;27.25;;;;;14.77;60.87;98506.91;4803504;29;102824;-68
2021/10/30 05:46:32;;;;;;;;;32.75;26.25;;;;;14.83;60.30;98508.72;4802836;29;103638;-68
2021/10/30 05:48:59;;;;;;;;;19.25;16.75;;;;;14.85;60.17;98506.59;4817587;28;104187;-69
2021/10/30 05:51:26;;;;;;;;;29.50;27.50;;;;;14.89;60.40;98515.97;4789031;29;102621;-69
2021/10/30 05:53:53;;;;;;;;;26.25;25.50;;;;;14.87;60.26;98504.47;4786003;29;103605;-69
2021/10/30 05:56:20;;;;;;;;;28.25;23.50;;;;;14.87;60.52;98519.97;4818888;28;102926;-69
2021/10/30 05:58:52;;;;;;;;;25.50;23.00;;;;;14.87;60.27;98506.34;4834811;28;104142;-69
2021/10/30 06:01:19;;;;;;;;;32.00;27.00;;;;;14.89;59.92;98515.97;4800219;29;102694;-69
2021/10/30 06:03:46;;;;;;;;;31.00;24.00;;;;;14.90;60.34;98514.91;4812863;28;102524;-69
2021/10/30 06:06:13;;;;;;;;;27.25;24.00;;;;;14.92;59.87;98514.66;4811414;29;102533;-69
2021/10/30 06:08:42;;;;;;;;;26.25;24.50;;;;;14.93;60.30;98528.06;4804771;29;109455;-69
2021/10/30 06:11:10;;;;;;;;;25.50;22.25;;;;;14.94;59.79;98518.84;4797398;29;102612;-68
2021/10/30 06:13:37;;;;;;;;;25.00;23.00;;;;;14.95;60.20;98516.94;4798156;28;102568;-68
2021/10/30 06:16:04;;;;;;;;;26.50;23.00;;;;;14.93;59.76;98522.59;4792140;29;105871;-68
2021/10/30 06:18:32;;;;;;;;;27.25;24.75;;;;;14.96;59.75;98516.69;4810952;28;104146;-68
2021/10/30 06:20:59;;;;;;;;;30.25;24.50;;;;;14.97;59.88;98518.34;4821338;28;103462;-68
2021/10/30 06:23:27;;;;;;;;;31.00;27.25;;;;;14.99;59.72;98520.88;4799087;29;102213;-69
2021/10/30 06:25:54;;;;;;;;;30.50;25.50;;;;;15.00;60.06;98522.50;4799815;29;103035;-69
2021/10/30 06:28:21;;;;;;;;;24.00;21.00;;;;;15.00;59.87;98528.78;4803630;28;104204;-69
2021/10/30 06:30:48;;;;;;;;;28.00;23.25;;;;;15.00;59.54;98526.06;4807563;29;102766;-69
2021/10/30 06:33:15;;;;;;;;;30.25;24.50;;;;;15.00;59.45;98528.78;4794466;29;103271;-69
2021/10/30 06:35:42;;;;;;;;;29.50;25.50;;;;;15.00;59.44;98528.78;4825407;29;102700;-68
2021/10/30 06:38:09;;;;;;;;;28.75;26.50;;;;;15.01;59.63;98535.88;4835309;28;106002;-68
2021/10/30 06:40:36;;;;;;;;;25.00;23.25;;;;;15.02;59.98;98528.56;4823968;28;103795;-69
2021/10/30 06:43:03;;;;;;;;;26.00;23.75;;;;;15.00;59.45;98526.06;4802038;28;103856;-69
2021/10/30 06:45:30;;;;;;;;;28.25;25.50;;;;;15.00;59.52;98534.22;4826698;28;102740;-69
2021/10/30 06:47:57;;;;;;;;;26.00;24.25;;;;;15.00;59.48;98528.78;4816867;28;103470;-69
2021/10/30 06:50:24;;;;;;;;;26.00;24.75;;;;;15.01;59.92;98530.44;4820932;28;102513;-69
2021/10/30 06:52:52;;;;;;;;;29.50;26.50;;;;;15.01;59.68;98530.44;4822198;28;102605;-69
2021/10/30 06:55:20;;;;;;;;;27.00;24.25;;;;;15.02;59.30;98540.28;4823028;28;102794;-68
2021/10/30 06:57:48;;;;;;;;;31.25;25.50;;;;;15.03;59.36;98538.41;4799910;29;104154;-69
2021/10/30 07:00:15;;;;;;;;;27.75;24.50;;;;;15.02;59.37;98542.16;4812515;29;102668;-69
2021/10/30 07:02:44;;;;;;;;;25.75;23.75;;;;;15.01;59.40;98552.22;4820157;28;104443;-69
2021/10/30 07:05:11;;;;;;;;;33.00;27.75;;;;;15.01;59.42;98546.78;4810378;28;102501;-69
2021/10/30 07:07:38;;;;;;;;;29.25;26.25;;;;;15.00;59.74;98547.84;4823751;28;104116;-69
2021/10/30 07:10:05;;;;;;;;;28.75;24.00;;;;;15.04;59.63;98557.19;4797327;29;102549;-69
2021/10/30 07:12:33;;;;;;;;;27.25;23.50;;;;;15.06;59.50;98551.53;4821424;28;102712;-69
2021/10/30 07:15:05;;;;;;;;;27.75;23.75;;;;;15.05;59.38;98552.59;4838260;28;102705;-69
2021/10/30 07:17:32;;;;;;;;;31.25;27.75;;;;;15.05;59.32;98553.44;4799935;29;104233;-69
2021/10/30 07:19:59;;;;;;;;;26.00;23.75;;;;;15.06;59.41;98567.88;4801272;28;102587;-69
2021/10/30 07:22:26;;;;;;;;;32.25;27.00;;;;;15.07;59.50;98551.31;4789583;29;103434;-69
2021/10/30 07:24:53;;;;;;;;;28.00;26.25;;;;;15.09;59.52;98553.78;4804803;28;102809;-69
2021/10/30 07:27:21;;;;;;;;;30.25;25.50;;;;;15.07;59.52;98543.16;4817682;28;103378;-69
2021/10/30 07:29:49;;;;;;;;;29.25;26.50;;;;;15.04;59.74;98543.59;4823636;28;102474;-69
2021/10/30 07:32:17;;;;;;;;;27.50;23.00;;;;;15.04;59.42;98551.75;4802335;29;102488;-69
2021/10/30 07:34:44;;;;;;;;;24.75;22.50;;;;;15.05;59.39;98539.81;4776354;29;102686;-69
2021/10/30 07:37:11;;;;;;;;;25.25;23.75;;;;;15.05;59.22;98542.53;4812504;28;104200;-69
2021/10/30 07:39:38;;;;;;;;;22.50;20.25;;;;;15.06;59.44;98537.91;4794830;29;102120;-69
2021/10/30 07:42:05;;;;;;;;;23.00;17.50;;;;;15.07;59.11;98542.31;4799175;29;104580;-68
2021/10/30 07:44:34;;;;;;;;;28.00;22.50;;;;;15.05;59.24;98541.69;4816205;28;102539;-68
2021/10/30 07:47:02;;;;;;;;;27.25;24.50;;;;;15.04;59.23;98543.59;4816340;28;104366;-68
2021/10/30 07:49:30;;;;;;;;;31.25;23.50;;;;;15.04;59.45;98546.31;4790976;29;103437;-69
2021/10/30 07:51:57;;;;;;;;;30.50;25.50;;;;;15.05;59.36;98547.16;4819875;28;102648;-69
2021/10/30 07:54:24;;;;;;;;;32.00;24.50;;;;;15.04;59.51;98549.03;4830577;28;102718;-69
2021/10/30 07:56:51;;;;;;;;;28.50;24.00;;;;;15.04;59.69;98534.63;4811356;28;102814;-69
2021/10/30 07:59:18;;;;;;;;;26.00;23.25;;;;;15.04;59.64;98532.69;4819230;28;102033;-69
2021/10/30 08:01:46;;;;;;;;;24.75;24.25;;;;;15.05;59.35;98542.53;4800745;29;102744;-69
2021/10/30 08:04:13;;;;;;;;;25.75;22.50;;;;;15.08;59.35;98541.25;4809392;28;102509;-69
2021/10/30 08:06:40;;;;;;;;;22.00;21.00;;;;;15.11;59.53;98535.34;4812357;28;103475;-69
2021/10/30 08:09:07;;;;;;;;;26.50;21.25;;;;;15.11;59.08;98538.91;4818090;28;102512;-69
2021/10/30 08:11:34;;;;;;;;;32.50;26.25;;;;;15.13;59.21;98539.47;4834134;28;102122;-69
2021/10/30 08:14:01;;;;;;;;;28.75;25.00;;;;;15.11;59.41;98541.63;4797154;28;103899;-69
2021/10/30 08:16:28;;;;;;;;;21.25;18.00;;;;;15.11;59.26;98544.34;4787650;29;104376;-69
2021/10/30 08:18:57;;;;;;;;;21.75;21.25;;;;;15.12;58.75;98540.56;4801065;29;103315;-69
2021/10/30 08:21:24;;;;;;;;;23.00;21.25;;;;;15.14;59.13;98537.59;4792316;29;103862;-69
2021/10/30 08:23:51;;;;;;;;;25.00;22.50;;;;;15.15;59.27;98540.09;4807110;29;102764;-69
2021/10/30 08:26:21;;;;;;;;;26.00;24.75;;;;;15.15;58.85;98533.81;4818231;28;104230;-69
2021/10/30 08:28:48;;;;;;;;;23.75;21.25;;;;;15.15;58.97;98545.53;4795976;29;102963;-69
2021/10/30 08:31:15;;;;;;;;;26.75;21.25;;;;;15.14;58.93;98532.16;4805192;29;102512;-69
2021/10/30 08:33:42;;;;;;;;;24.75;21.75;;;;;15.18;58.49;98536.06;4793326;28;102795;-68
2021/10/30 08:36:09;;;;;;;;;26.00;21.00;;;;;15.21;59.15;98537.50;4835335;28;103356;-69
2021/10/30 08:38:36;;;;;;;;;24.75;20.50;;;;;15.19;59.07;98535.00;4824211;29;102384;-69
2021/10/30 08:41:04;;;;;;;;;24.25;21.25;;;;;15.22;59.12;98531.00;4819056;28;103494;-69
2021/10/30 08:43:31;;;;;;;;;18.00;15.50;;;;;15.24;59.04;98528.84;4810396;29;104844;-69
2021/10/30 08:45:59;;;;;;;;;21.25;19.25;;;;;15.27;58.52;98533.84;4835254;28;105602;-69
2021/10/30 08:48:32;;;;;;;;;20.75;19.00;;;;;15.26;59.00;98524.84;4825929;28;102373;-69
2021/10/30 08:51:00;;;;;;;;;25.00;21.00;;;;;15.30;59.20;98530.66;4794478;28;102323;-69
2021/10/30 08:53:28;;;;;;;;;24.25;19.50;;;;;15.31;59.02;98529.59;4807976;29;102177;-69
2021/10/30 08:55:57;;;;;;;;;22.00;20.00;;;;;15.33;58.19;98522.00;4806461;29;102888;-69
2021/10/30 08:58:27;;;;;;;;;20.75;16.25;;;;;15.33;58.87;98525.56;4802172;28;102568;-68
2021/10/30 09:00:56;;;;;;;;;24.00;18.25;;;;;15.37;58.63;98528.66;4813329;28;102444;-69
2021/10/30 09:03:24;;;;;;;;;17.25;14.50;;;;;15.38;58.68;98522.16;4823250;28;102726;-69
2021/10/30 09:05:56;;;;;;;;;18.25;16.25;;;;;15.41;58.32;98518.94;4791727;29;104061;-69
2021/10/30 09:08:26;;;;;;;;;24.50;21.75;;;;;15.42;58.36;98521.44;4803571;28;102853;-69
2021/10/30 09:11:07;;;;;;;;;20.75;17.50;;;;;15.43;58.90;98519.56;4824632;28;102541;-69
2021/10/30 09:13:35;;;;;;;;;21.00;17.75;;;;;15.42;58.31;98521.44;4814120;28;102542;-69
2021/10/30 09:16:02;;;;;;;;;23.00;18.00;;;;;15.45;58.17;98515.53;4786989;29;104436;-69
2021/10/30 09:18:36;;;;;;;;;28.25;22.50;;;;;15.47;57.85;98518.03;4819188;28;102019;-69
2021/10/30 09:21:03;;;;;;;;;21.75;18.00;;;;;15.47;58.33;98524.31;4823830;28;102428;-69
2021/10/30 09:23:34;;;;;;;;;19.75;18.25;;;;;15.48;58.43;98525.97;4837525;28;102833;-69
2021/10/30 09:26:09;;;;;;;;;19.75;18.50;;;;;15.49;58.13;98521.34;4819002;28;104203;-69
2021/10/30 09:28:57;;;;;;;;;23.75;17.50;;;;;15.51;58.16;98521.97;4821448;28;102533;-69
2021/10/30 09:31:25;;;;;;;;;20.75;18.00;;;;;15.53;57.96;98519.84;4807711;28;103634;-69
2021/10/30 09:33:53;;;;;;;;;21.25;19.25;;;;;15.52;58.57;98512.72;4807703;28;103206;-69
2021/10/30 09:36:21;;;;;;;;;16.75;15.75;;;;;15.53;57.82;98517.13;4830627;28;104162;-69
2021/10/30 09:38:55;;;;;;;;;20.75;18.00;;;;;15.54;57.81;98513.31;4810369;28;103790;-69
2021/10/30 09:41:24;;;;;;;;;19.75;15.75;;;;;15.54;58.32;98502.41;4806957;28;102420;-69
2021/10/30 09:44:00;;;;;;;;;17.00;16.25;;;;;15.55;57.84;98495.91;4825848;28;102225;-69
2021/10/30 09:46:29;;;;;;;;;20.25;15.50;;;;;15.56;58.45;98503.84;4821479;28;108916;-69
2021/10/30 09:48:58;;;;;;;;;19.00;16.25;;;;;15.57;57.70;98496.50;4820305;28;102433;-69
2021/10/30 09:51:32;;;;;;;;;18.75;15.75;;;;;15.58;58.22;98498.16;4803479;28;102590;-69
2021/10/30 09:54:00;;;;;;;;;15.75;15.75;;;;;15.58;57.61;98503.59;4809622;29;103699;-69
2021/10/30 09:56:47;;;;;;;;;13.75;11.25;;;;;15.58;57.75;98503.59;4815494;28;104257;-69
2021/10/30 09:59:15;;;;;;;;;17.25;15.75;;;;;15.59;57.80;98502.53;4804745;28;102827;-69
2021/10/30 10:01:46;;;;;;;;;19.75;16.00;;;;;15.60;57.93;98501.47;4821873;28;102310;-69
2021/10/30 10:04:14;;;;;;;;;17.25;15.75;;;;;15.60;57.58;98498.75;4805941;29;102610;-69
2021/10/30 10:06:42;;;;;;;;;18.25;15.00;;;;;15.60;57.66;98491.41;4821720;28;104207;-69
2021/10/30 10:09:10;;;;;;;;;22.25;18.25;;;;;15.59;58.00;98487.03;4774577;29;103943;-69
2021/10/30 10:11:39;;;;;;;;;21.00;17.00;;;;;15.61;57.83;98492.25;4808447;28;105309;-69
2021/10/30 10:14:06;;;;;;;;;19.25;14.00;;;;;15.62;57.85;98488.47;4792659;29;103844;-68
2021/10/30 10:16:33;;;;;;;;;17.00;15.75;;;;;15.60;57.56;98485.13;4807791;29;104141;-69
2021/10/30 10:19:00;;;;;;;;;25.00;19.25;;;;;15.62;57.78;98483.00;4803846;29;102585;-69
2021/10/30 10:21:30;;;;;;;;;18.25;16.00;;;;;15.62;57.61;98492.00;4808061;28;104307;-69
2021/10/30 10:24:10;;;;;;;;;18.25;16.50;;;;;15.63;58.62;98474.56;4843520;28;102379;-69
2021/10/30 10:26:56;;;;;;;;;16.75;14.50;;;;;15.65;57.81;98481.69;4796931;29;104303;-69
2021/10/30 10:29:41;;;;;;;;;12.25;10.25;;;;;15.65;57.94;98479.81;4802588;28;103417;-69
2021/10/30 10:32:21;;;;;;;;;15.25;14.50;;;;;15.67;57.63;98488.56;4817852;28;105377;-69
2021/10/30 10:34:48;;;;;;;;;15.00;14.75;;;;;15.68;58.23;98475.75;4831239;28;102244;-69
2021/10/30 10:37:17;;;;;;;;;19.75;16.75;;;;;15.69;58.02;98463.78;4818627;28;104092;-69
2021/10/30 10:39:45;;;;;;;;;14.50;14.00;;;;;15.69;58.00;98461.06;4824404;28;102447;-69
2021/10/30 10:42:14;;;;;;;;;21.00;17.00;;;;;15.70;57.89;98460.00;4806716;29;102466;-69
2021/10/30 10:44:43;;;;;;;;;20.25;16.25;;;;;15.71;57.48;98462.50;4803133;29;102507;-69
2021/10/30 10:47:37;;;;;;;;;17.00;15.50;;;;;15.71;57.87;98454.34;4836930;28;104335;-69
2021/10/30 10:50:26;;;;;;;;;17.50;17.25;;;;;15.73;58.17;98457.63;4815133;28;103959;-69
2021/10/30 10:52:59;;;;;;;;;16.75;14.75;;;;;15.73;57.61;98451.34;4824416;28;102439;-69
2021/10/30 10:55:30;;;;;;;;;18.25;15.50;;;;;15.74;57.54;98447.56;4813185;28;102230;-69
2021/10/30 10:58:01;;;;;;;;;16.00;15.75;;;;;15.76;57.41;98453.63;4800779;28;104257;-69
2021/10/30 11:00:29;;;;;;;;;18.25;17.50;;;;;15.76;57.61;98445.44;4797818;29;102624;-69
2021/10/30 11:02:56;;;;;;;;;17.50;14.75;;;;;15.77;57.67;98453.34;4817863;28;102488;-69
2021/10/30 11:05:30;;;;;;;;;17.00;15.00;;;;;15.78;58.10;98446.84;4816339;28;104613;-69
2021/10/30 11:08:11;;;;;;;;;17.50;15.50;;;;;15.79;58.04;98444.97;4813042;28;109262;-69
2021/10/30 11:10:39;;;;;;;;;16.50;14.50;;;;;15.82;58.04;98439.00;4823446;28;103942;-69
2021/10/30 11:13:07;;;;;;;;;19.25;15.00;;;;;15.82;58.35;98434.41;4783231;29;102616;-69
2021/10/30 11:15:52;;;;;;;;;17.00;15.25;;;;;15.84;58.18;98435.00;4818070;28;104017;-69